Time;durP1;ratioP1;P1;durP2;ratioP2;P2;SDS_P1;SDS_P2;PMS_P1;PMS_P2;Temp;Humidity;BMP_temperature;BMP_pressure;BME280_temperature;BME280_humidity;BME280_pressure;Samples;Min_cycle;Max_cycle;Signal;HPM_P1;HPM_P2
2024/04/15 00:01:09;;;;;;;8.27;1.02;;;8.20;99.90;;;;;;6336117;22;20007;-91
2024/04/15 00:03:35;;;;;;;7.22;2.00;;;8.10;99.90;;;;;;6335525;22;19996;-91
2024/04/15 00:06:02;;;;;;;9.90;1.50;;;8.10;99.90;;;;;;6336122;22;20006;-92
2024/04/15 00:08:28;;;;;;;6.85;1.23;;;8.10;99.90;;;;;;6337353;22;19999;-92
2024/04/15 00:10:56;;;;;;;5.50;1.00;;;8.10;99.90;;;;;;6338157;22;19999;-92
2024/04/15 00:13:24;;;;;;;9.65;1.30;;;8.10;99.90;;;;;;6381437;22;19995;-92
2024/04/15 00:15:55;;;;;;;9.98;1.63;;;8.10;99.90;;;;;;6307592;22;20413;-92
2024/04/15 00:18:21;;;;;;;7.55;1.63;;;8.10;99.90;;;;;;6345355;22;19999;-91
2024/04/15 00:20:47;;;;;;;2.67;0.93;;;8.00;99.90;;;;;;6343828;22;20480;-92
2024/04/15 00:23:13;;;;;;;6.10;1.20;;;8.00;99.90;;;;;;6381893;22;19995;-91
2024/04/15 00:25:42;;;;;;;12.48;1.25;;;8.00;99.90;;;;;;6338462;22;19999;-91
2024/04/15 00:28:13;;;;;;;9.30;1.20;;;8.00;99.90;;;;;;6377976;22;20027;-91
2024/04/15 00:30:46;;;;;;;11.35;1.40;;;8.00;99.90;;;;;;6297333;22;20027;-91
2024/04/15 00:33:12;;;;;;;4.95;1.00;;;8.00;99.90;;;;;;6304230;22;19991;-92
2024/04/15 00:35:45;;;;;;;11.57;1.20;;;8.00;99.90;;;;;;6294129;22;19995;-91
2024/04/15 00:38:13;;;;;;;5.90;1.02;;;7.90;99.90;;;;;;6335854;22;20410;-91
2024/04/15 00:40:38;;;;;;;4.32;1.10;;;7.90;99.90;;;;;;6336295;22;20454;-93
2024/04/15 00:43:07;;;;;;;7.57;0.77;;;7.90;99.90;;;;;;6335704;22;20002;-91
2024/04/15 00:45:35;;;;;;;7.38;1.10;;;7.90;99.90;;;;;;6295597;22;19995;-91
2024/04/15 00:48:12;;;;;;;3.22;0.80;;;8.00;99.90;;;;;;6336441;22;19991;-92
2024/04/15 00:50:41;;;;;;;9.45;1.20;;;8.00;99.90;;;;;;6333619;22;19995;-92
2024/04/15 00:53:07;;;;;;;7.00;0.85;;;7.90;99.90;;;;;;6335051;22;20001;-92
2024/04/15 00:55:36;;;;;;;6.85;0.95;;;7.90;99.90;;;;;;6294844;22;20339;-92
2024/04/15 00:58:04;;;;;;;5.72;1.00;;;7.90;99.90;;;;;;6335063;22;20002;-92
2024/04/15 01:00:31;;;;;;;2.33;0.60;;;7.80;99.90;;;;;;6335172;22;20374;-92
2024/04/15 01:02:57;;;;;;;4.10;1.15;;;7.80;99.90;;;;;;6335540;22;20011;-92
2024/04/15 01:05:24;;;;;;;6.20;1.00;;;7.80;99.90;;;;;;6335903;22;19999;-91
2024/04/15 01:07:50;;;;;;;4.95;1.40;;;7.80;99.90;;;;;;6336186;22;20006;-91
2024/04/15 01:10:19;;;;;;;5.45;0.80;;;7.80;99.90;;;;;;6337609;22;20003;-90
2024/04/15 01:12:45;;;;;;;8.95;1.00;;;7.80;99.90;;;;;;6339744;22;20003;-90
2024/04/15 01:15:10;;;;;;;11.70;0.88;;;7.80;99.90;;;;;;6339498;22;20014;-91
2024/04/15 01:17:36;;;;;;;3.38;0.70;;;7.80;99.90;;;;;;6336146;22;20074;-90
2024/04/15 01:20:02;;;;;;;5.10;1.00;;;7.80;99.90;;;;;;6336388;22;20002;-90
2024/04/15 01:22:33;;;;;;;5.28;0.88;;;7.80;99.90;;;;;;6334563;22;20010;-91
2024/04/15 01:25:02;;;;;;;7.20;1.10;;;7.80;99.90;;;;;;6335656;22;20011;-90
2024/04/15 01:27:32;;;;;;;4.15;0.85;;;7.80;99.90;;;;;;6295103;22;19999;-90
2024/04/15 01:30:01;;;;;;;6.50;1.00;;;7.80;99.90;;;;;;6296101;22;20010;-91
2024/04/15 01:32:26;;;;;;;4.13;0.70;;;7.80;99.90;;;;;;6335378;22;20440;-91
2024/04/15 01:34:52;;;;;;;6.43;0.85;;;7.80;99.90;;;;;;6335999;22;20000;-92
2024/04/15 01:37:18;;;;;;;4.28;0.70;;;7.80;99.90;;;;;;6335736;22;19991;-91
2024/04/15 01:39:44;;;;;;;5.53;0.65;;;7.80;99.90;;;;;;6335196;22;19991;-91
2024/04/15 01:42:09;;;;;;;3.67;0.80;;;7.80;99.90;;;;;;6335162;22;20309;-91
2024/04/15 01:44:35;;;;;;;3.70;0.70;;;7.80;99.90;;;;;;6334059;22;20070;-93
2024/04/15 01:47:01;;;;;;;3.08;1.42;;;7.80;99.90;;;;;;6336326;22;20002;-93
2024/04/15 01:49:27;;;;;;;1.05;0.40;;;7.80;99.90;;;;;;6335700;22;19991;-90
2024/04/15 01:51:52;;;;;;;1.65;0.50;;;7.70;99.90;;;;;;6336509;22;20014;-91
2024/04/15 01:54:22;;;;;;;3.13;1.00;;;7.80;99.90;;;;;;6335728;22;19991;-89
2024/04/15 01:56:50;;;;;;;8.80;1.00;;;7.80;99.90;;;;;;6339027;22;20003;-89
2024/04/15 01:59:16;;;;;;;1.95;0.70;;;7.80;99.90;;;;;;6338238;22;19999;-90
2024/04/15 02:01:43;;;;;;;6.80;1.02;;;7.80;99.90;;;;;;6336422;22;20005;-89
2024/04/15 02:04:08;;;;;;;5.32;0.80;;;7.80;99.90;;;;;;6295456;22;19995;-89
2024/04/15 02:06:37;;;;;;;3.05;0.70;;;7.90;99.90;;;;;;6376718;22;19995;-88
2024/04/15 02:09:02;;;;;;;4.68;0.70;;;7.90;99.90;;;;;;6335315;22;20006;-89
2024/04/15 02:11:28;;;;;;;8.32;1.13;;;7.90;99.90;;;;;;6336145;22;19999;-89
2024/04/15 02:13:55;;;;;;;6.60;1.00;;;8.00;99.90;;;;;;6335603;22;20010;-89
2024/04/15 02:16:22;;;;;;;11.55;1.38;;;8.00;99.90;;;;;;6335914;22;20027;-91
2024/04/15 02:18:49;;;;;;;5.18;1.02;;;8.00;99.90;;;;;;6335206;22;20010;-91
2024/04/15 02:21:15;;;;;;;6.10;0.77;;;8.00;99.90;;;;;;6334392;22;20358;-90
2024/04/15 02:23:42;;;;;;;4.40;0.80;;;8.00;99.90;;;;;;6334649;22;19992;-89
2024/04/15 02:26:08;;;;;;;4.20;0.90;;;8.00;99.90;;;;;;6377111;22;19995;-89
2024/04/15 02:28:35;;;;;;;6.00;1.48;;;8.00;99.90;;;;;;6294293;22;20078;-89
2024/04/15 02:31:01;;;;;;;8.93;1.23;;;8.00;99.90;;;;;;6375682;22;20002;-90
2024/04/15 02:33:26;;;;;;;6.80;1.15;;;8.00;99.90;;;;;;6333325;22;20295;-90
2024/04/15 02:35:52;;;;;;;6.65;1.35;;;8.00;99.90;;;;;;6333520;22;20078;-93
2024/04/15 02:38:18;;;;;;;3.42;0.88;;;8.00;99.90;;;;;;6334066;22;19999;-90
2024/04/15 02:40:43;;;;;;;10.90;1.25;;;8.00;99.90;;;;;;6333684;22;20357;-89
2024/04/15 02:43:09;;;;;;;7.70;1.25;;;8.00;99.90;;;;;;6334308;22;20291;-88
2024/04/15 02:45:35;;;;;;;8.75;1.35;;;8.00;99.90;;;;;;6334051;22;20006;-90
2024/04/15 02:48:01;;;;;;;8.50;1.17;;;8.00;99.90;;;;;;6376325;22;20199;-89
2024/04/15 02:50:26;;;;;;;4.88;1.20;;;8.00;99.90;;;;;;6333524;22;19992;-90
2024/04/15 02:52:52;;;;;;;6.35;1.50;;;8.00;99.90;;;;;;6334424;22;20002;-89
2024/04/15 02:55:18;;;;;;;3.88;0.68;;;8.00;99.90;;;;;;6334231;22;19987;-90
2024/04/15 02:57:43;;;;;;;9.73;1.13;;;8.00;99.90;;;;;;6293982;22;20009;-90
2024/04/15 03:00:10;;;;;;;11.38;0.98;;;8.00;99.90;;;;;;6333328;22;19999;-90
2024/04/15 03:02:35;;;;;;;6.72;0.77;;;8.00;99.90;;;;;;6332613;22;19999;-91
2024/04/15 03:05:04;;;;;;;7.88;1.90;;;8.00;99.90;;;;;;6376235;22;20066;-90
2024/04/15 03:07:30;;;;;;;8.45;1.50;;;8.00;99.90;;;;;;6334817;22;20000;-90
2024/04/15 03:09:56;;;;;;;4.97;1.20;;;8.00;99.90;;;;;;6335974;22;20414;-90
2024/04/15 03:12:23;;;;;;;7.55;1.17;;;8.00;99.90;;;;;;6335014;22;20007;-90
2024/04/15 03:14:49;;;;;;;5.70;1.30;;;8.00;99.90;;;;;;6377379;22;20035;-90
2024/04/15 03:17:15;;;;;;;5.35;1.17;;;8.00;99.90;;;;;;6337089;22;20044;-90
2024/04/15 03:19:41;;;;;;;8.68;1.42;;;8.00;99.90;;;;;;6336614;22;19995;-90
2024/04/15 03:22:08;;;;;;;6.18;1.58;;;7.90;99.90;;;;;;6336558;22;20019;-90
2024/04/15 03:24:35;;;;;;;4.35;0.85;;;7.90;99.90;;;;;;6336305;22;19995;-91
2024/04/15 03:27:05;;;;;;;5.43;0.98;;;7.90;99.90;;;;;;6336677;22;20000;-90
2024/04/15 03:29:31;;;;;;;9.27;1.13;;;7.90;99.90;;;;;;6337415;22;20003;-90
2024/04/15 03:31:56;;;;;;;8.48;1.27;;;8.00;99.90;;;;;;6337438;22;19995;-90
2024/04/15 03:34:23;;;;;;;5.07;0.80;;;7.90;99.90;;;;;;6336506;22;19999;-90
2024/04/15 03:36:49;;;;;;;6.13;1.13;;;8.00;99.90;;;;;;6335957;22;19995;-90
2024/04/15 03:39:15;;;;;;;6.93;1.13;;;8.00;99.90;;;;;;6336000;22;20095;-90
2024/04/15 03:41:43;;;;;;;5.38;1.20;;;8.00;99.90;;;;;;6378061;22;19995;-90
2024/04/15 03:44:09;;;;;;;7.50;1.40;;;7.90;99.90;;;;;;6332838;22;19991;-91
2024/04/15 03:46:35;;;;;;;5.85;1.10;;;8.00;99.90;;;;;;6334850;22;20425;-90
2024/04/15 03:49:02;;;;;;;4.80;1.08;;;8.00;99.90;;;;;;6334793;22;19999;-89
2024/04/15 03:51:28;;;;;;;11.30;1.00;;;7.90;99.90;;;;;;6335007;22;19995;-90
2024/04/15 03:53:54;;;;;;;7.97;1.30;;;7.90;99.90;;;;;;6334784;22;20007;-90
2024/04/15 03:56:20;;;;;;;11.85;2.67;;;7.90;99.90;;;;;;6335984;22;20006;-90
2024/04/15 03:58:45;;;;;;;3.92;1.27;;;7.90;99.90;;;;;;6378060;22;19987;-90
2024/04/15 04:01:12;;;;;;;4.85;1.20;;;8.00;99.90;;;;;;6333638;22;20007;-90
2024/04/15 04:03:40;;;;;;;8.30;1.23;;;7.90;99.90;;;;;;6335678;22;20003;-90
2024/04/15 04:06:07;;;;;;;9.55;1.20;;;7.90;99.90;;;;;;6335203;22;19992;-89
2024/04/15 04:08:34;;;;;;;5.57;1.55;;;7.90;99.90;;;;;;6334908;22;20480;-89
2024/04/15 04:11:07;;;;;;;7.03;1.48;;;7.90;99.90;;;;;;6378095;22;19991;-91
2024/04/15 04:13:36;;;;;;;5.38;0.90;;;7.90;99.90;;;;;;6296457;22;20003;-90
2024/04/15 04:16:04;;;;;;;10.48;0.85;;;7.90;99.90;;;;;;6378591;22;19999;-90
2024/04/15 04:18:33;;;;;;;12.10;1.30;;;7.90;99.90;;;;;;6335882;22;20006;-92
2024/04/15 04:20:59;;;;;;;5.80;0.75;;;7.90;99.90;;;;;;6377483;22;20370;-90
2024/04/15 04:23:25;;;;;;;11.98;2.33;;;7.90;99.90;;;;;;6333810;22;20023;-89
2024/04/15 04:25:50;;;;;;;6.07;1.60;;;7.80;99.90;;;;;;6334689;22;19999;-90
2024/04/15 04:28:20;;;;;;;10.80;1.30;;;7.80;99.90;;;;;;6335015;22;20395;-90
2024/04/15 04:30:46;;;;;;;6.00;1.05;;;7.80;99.90;;;;;;6333959;22;20006;-89
2024/04/15 04:33:15;;;;;;;3.33;0.98;;;7.80;99.90;;;;;;6376326;22;19995;-90
2024/04/15 04:35:41;;;;;;;16.92;1.27;;;7.80;99.90;;;;;;6335013;22;20070;-90
2024/04/15 04:38:07;;;;;;;7.68;1.10;;;7.80;99.90;;;;;;6294428;22;20003;-89
2024/04/15 04:40:33;;;;;;;5.85;1.35;;;7.80;99.90;;;;;;6294116;22;19999;-89
2024/04/15 04:42:59;;;;;;;4.63;0.75;;;7.80;99.90;;;;;;6335217;22;19991;-89
2024/04/15 04:45:29;;;;;;;5.20;1.13;;;7.70;99.90;;;;;;6336307;22;20069;-90
2024/04/15 04:47:58;;;;;;;12.23;1.70;;;7.70;99.90;;;;;;6336975;22;19995;-90
2024/04/15 04:50:24;;;;;;;12.27;1.77;;;7.70;99.90;;;;;;6380440;22;20010;-90
2024/04/15 04:52:50;;;;;;;3.53;0.60;;;7.70;99.90;;;;;;6383342;22;19999;-90
2024/04/15 04:55:15;;;;;;;15.20;2.58;;;7.70;99.90;;;;;;6387451;22;20009;-91
2024/04/15 04:57:41;;;;;;;13.30;1.90;;;7.60;99.90;;;;;;6382766;22;20006;-92
2024/04/15 05:00:08;;;;;;;8.82;1.40;;;7.60;99.90;;;;;;6381807;22;20007;-92
2024/04/15 05:02:34;;;;;;;11.77;1.30;;;7.60;99.90;;;;;;6380049;22;20010;-92
2024/04/15 05:05:00;;;;;;;8.35;1.30;;;7.50;99.90;;;;;;6379186;22;19995;-92
2024/04/15 05:07:25;;;;;;;7.10;1.45;;;7.50;99.90;;;;;;6335800;22;20047;-91
2024/04/15 05:09:51;;;;;;;8.38;1.52;;;7.50;99.90;;;;;;6334570;22;20003;-92
2024/04/15 05:12:17;;;;;;;8.82;1.65;;;7.50;99.90;;;;;;6334122;22;19995;-92
2024/04/15 05:14:42;;;;;;;14.85;2.03;;;7.50;99.90;;;;;;6335299;22;19999;-91
2024/04/15 05:17:10;;;;;;;7.57;0.88;;;7.50;99.90;;;;;;6335484;22;20410;-92
2024/04/15 05:19:36;;;;;;;10.15;1.73;;;7.50;99.90;;;;;;6376185;22;19999;-91
2024/04/15 05:22:02;;;;;;;7.72;1.30;;;7.40;99.90;;;;;;6334970;22;20006;-91
2024/04/15 05:24:27;;;;;;;3.55;1.10;;;7.40;99.90;;;;;;6335700;22;20007;-91
2024/04/15 05:26:53;;;;;;;5.10;1.52;;;7.40;99.90;;;;;;6335579;22;20306;-90
2024/04/15 05:29:22;;;;;;;3.58;0.70;;;7.40;99.90;;;;;;6335160;22;20411;-90
2024/04/15 05:31:48;;;;;;;2.95;0.70;;;7.40;99.90;;;;;;6295995;22;20006;-88
2024/04/15 05:34:17;;;;;;;3.67;1.02;;;7.40;99.90;;;;;;6335230;22;20000;-88
2024/04/15 05:36:44;;;;;;;2.38;0.85;;;7.40;99.90;;;;;;6335469;22;19999;-89
2024/04/15 05:39:09;;;;;;;6.38;1.77;;;7.30;99.90;;;;;;6335898;22;20414;-90
2024/04/15 05:41:35;;;;;;;4.30;0.57;;;7.40;99.90;;;;;;6338846;22;20010;-92
2024/04/15 05:44:01;;;;;;;5.90;1.40;;;7.30;99.90;;;;;;6335920;22;20074;-92
2024/04/15 05:46:26;;;;;;;5.32;1.00;;;7.30;99.90;;;;;;6335744;22;20417;-92
2024/04/15 05:48:52;;;;;;;1.33;0.55;;;7.30;99.90;;;;;;6336079;22;20565;-91
2024/04/15 05:51:19;;;;;;;0.80;0.40;;;7.20;99.90;;;;;;6334923;22;19999;-91
2024/04/15 05:53:45;;;;;;;1.80;0.30;;;7.10;99.90;;;;;;6334620;22;20027;-89
2024/04/15 05:56:12;;;;;;;1.98;0.13;;;7.00;99.90;;;;;;6380883;22;19999;-89
2024/04/15 05:58:38;;;;;;;2.60;0.32;;;6.70;99.90;;;;;;6337961;22;20070;-89
2024/04/15 06:01:04;;;;;;;0.38;0.10;;;6.60;99.90;;;;;;6338207;22;20007;-88
2024/04/15 06:03:33;;;;;;;1.10;0.20;;;6.40;99.90;;;;;;6339107;22;20314;-89
2024/04/15 06:06:05;;;;;;;0.65;0.30;;;6.30;99.90;;;;;;6338802;22;19991;-89
2024/04/15 06:08:31;;;;;;;5.40;0.40;;;6.20;99.90;;;;;;6378302;22;19999;-88
2024/04/15 06:11:00;;;;;;;2.60;1.17;;;6.20;99.90;;;;;;6335814;22;19991;-89
2024/04/15 06:13:26;;;;;;;4.00;0.40;;;6.10;99.90;;;;;;6380357;22;20002;-89
2024/04/15 06:15:55;;;;;;;1.30;0.30;;;6.10;99.90;;;;;;6289472;22;20010;-89
2024/04/15 06:18:20;;;;;;;4.80;0.68;;;6.10;99.90;;;;;;6335694;22;20023;-89
2024/04/15 06:20:46;;;;;;;2.88;0.82;;;6.00;99.90;;;;;;6336292;22;19995;-90
2024/04/15 06:23:13;;;;;;;3.78;0.50;;;6.00;99.90;;;;;;6336345;22;19991;-90
2024/04/15 06:25:41;;;;;;;6.35;0.45;;;5.90;99.90;;;;;;6335679;22;20080;-89
2024/04/15 06:28:06;;;;;;;3.38;0.65;;;5.90;99.90;;;;;;6295442;22;20031;-89
2024/04/15 06:30:32;;;;;;;4.80;0.90;;;5.90;99.90;;;;;;6334099;22;20398;-90
2024/04/15 06:32:59;;;;;;;8.65;0.80;;;5.80;99.90;;;;;;6334313;22;19991;-90
2024/04/15 06:35:25;;;;;;;8.73;0.93;;;5.80;99.90;;;;;;6293365;22;19995;-88
2024/04/15 06:37:51;;;;;;;4.35;0.82;;;5.80;99.90;;;;;;6293266;22;20006;-90
2024/04/15 06:40:17;;;;;;;8.23;0.80;;;5.80;99.90;;;;;;6332615;22;19988;-87
2024/04/15 06:42:46;;;;;;;14.63;0.82;;;5.80;99.90;;;;;;6373172;22;20009;-88
2024/04/15 06:45:15;;;;;;;8.75;0.70;;;5.80;99.90;;;;;;6332414;22;20472;-89
2024/04/15 06:47:41;;;;;;;4.90;0.60;;;5.90;99.90;;;;;;6333022;22;20013;-89
2024/04/15 06:50:07;;;;;;;7.85;1.23;;;5.90;99.90;;;;;;6333626;22;19999;-90
2024/04/15 06:52:33;;;;;;;8.13;1.15;;;5.90;99.90;;;;;;6335514;22;19999;-89
2024/04/15 06:55:01;;;;;;;6.85;0.90;;;5.90;99.90;;;;;;6377607;22;20010;-89
2024/04/15 06:57:27;;;;;;;6.97;1.02;;;6.00;99.90;;;;;;6335202;22;20014;-89
2024/04/15 07:00:00;;;;;;;7.95;1.13;;;6.10;99.90;;;;;;6335817;22;20003;-88
2024/04/15 07:02:26;;;;;;;6.35;1.00;;;6.10;99.90;;;;;;6335256;22;20003;-89
2024/04/15 07:04:54;;;;;;;9.90;2.40;;;6.10;99.90;;;;;;6334713;22;20070;-87
2024/04/15 07:07:22;;;;;;;10.95;1.40;;;6.10;99.90;;;;;;6334650;22;19997;-88
2024/04/15 07:09:49;;;;;;;10.27;1.38;;;6.20;99.90;;;;;;6335129;22;20003;-88
2024/04/15 07:12:15;;;;;;;14.57;2.00;;;6.30;99.90;;;;;;6335733;22;20390;-92
2024/04/15 07:14:41;;;;;;;20.15;1.90;;;6.30;99.90;;;;;;6334839;22;20011;-89
2024/04/15 07:17:07;;;;;;;17.48;2.05;;;6.30;99.90;;;;;;6333987;22;19999;-89
2024/04/15 07:19:33;;;;;;;12.48;1.17;;;6.30;99.90;;;;;;6334293;22;20492;-88
2024/04/15 07:21:59;;;;;;;17.38;2.65;;;6.30;99.90;;;;;;6333988;22;20013;-88
2024/04/15 07:24:24;;;;;;;11.57;1.30;;;6.30;99.90;;;;;;6333977;22;20014;-89
2024/04/15 07:26:50;;;;;;;15.05;1.70;;;6.30;99.90;;;;;;6334853;22;20493;-88
2024/04/15 07:29:15;;;;;;;10.07;1.67;;;6.40;99.90;;;;;;6336009;22;20003;-88
2024/04/15 07:31:41;;;;;;;6.28;1.38;;;6.40;99.90;;;;;;6335827;22;20067;-87
2024/04/15 07:34:07;;;;;;;19.27;3.08;;;6.40;99.90;;;;;;6336147;22;20010;-89
2024/04/15 07:36:33;;;;;;;10.48;2.00;;;6.50;99.90;;;;;;6336620;22;19998;-88
2024/04/15 07:38:59;;;;;;;12.73;1.52;;;6.50;99.90;;;;;;6337982;22;19995;-88
2024/04/15 07:41:25;;;;;;;11.88;1.50;;;6.60;99.90;;;;;;6338911;22;20005;-88
2024/04/15 07:43:52;;;;;;;13.05;1.45;;;6.60;99.90;;;;;;6336765;22;19999;-89
2024/04/15 07:46:18;;;;;;;10.60;1.60;;;6.60;99.90;;;;;;6340718;22;20015;-92
2024/04/15 07:48:43;;;;;;;2.38;0.43;;;6.60;99.90;;;;;;6333625;22;20684;-94
2024/04/15 07:51:09;;;;;;;1.08;0.28;;;6.40;99.90;;;;;;6337634;22;20488;-91
2024/04/15 07:53:35;;;;;;;4.65;0.55;;;6.20;99.90;;;;;;6336960;22;20413;-90
2024/04/15 07:56:01;;;;;;;3.88;0.47;;;5.80;99.90;;;;;;6335561;22;20014;-90
2024/04/15 07:58:26;;;;;;;5.82;0.60;;;5.60;99.90;;;;;;6335498;22;20011;-91
2024/04/15 08:00:53;;;;;;;5.95;0.80;;;5.50;99.90;;;;;;6336366;22;20007;-92
2024/04/15 08:03:19;;;;;;;5.95;1.52;;;5.30;99.90;;;;;;6337146;22;19999;-91
2024/04/15 08:05:44;;;;;;;4.05;0.65;;;5.20;99.90;;;;;;6336319;22;20078;-90
2024/04/15 08:08:10;;;;;;;2.63;0.85;;;5.20;99.90;;;;;;6335512;22;20011;-90
2024/04/15 08:10:36;;;;;;;3.25;0.57;;;5.10;99.90;;;;;;6334816;22;20410;-90
2024/04/15 08:13:03;;;;;;;1.65;0.45;;;5.10;99.90;;;;;;6333806;22;20687;-90
2024/04/15 08:15:31;;;;;;;5.55;0.85;;;5.10;99.90;;;;;;6334359;22;20010;-90
2024/04/15 08:17:57;;;;;;;8.20;0.73;;;5.10;99.90;;;;;;6334612;22;20059;-89
2024/04/15 08:20:23;;;;;;;11.55;2.13;;;5.10;99.90;;;;;;6333521;22;19999;-89
2024/04/15 08:22:49;;;;;;;2.20;0.40;;;5.20;99.90;;;;;;6340741;22;20003;-91
2024/04/15 08:25:16;;;;;;;2.05;0.50;;;5.30;99.90;;;;;;6347155;22;20661;-89
2024/04/15 08:27:42;;;;;;;2.88;0.40;;;5.20;99.90;;;;;;6343910;22;19999;-92
2024/04/15 08:30:08;;;;;;;0.75;0.40;;;5.00;99.90;;;;;;6342625;22;20009;-91
2024/04/15 08:32:34;;;;;;;2.30;0.50;;;4.80;99.90;;;;;;6351440;22;20454;-91
2024/04/15 08:35:00;;;;;;;4.47;0.93;;;4.70;99.90;;;;;;6376732;22;20015;-91
2024/04/15 08:37:26;;;;;;;5.90;1.00;;;4.60;99.90;;;;;;6334194;22;19999;-93
2024/04/15 08:39:52;;;;;;;2.53;0.50;;;4.50;99.90;;;;;;6333606;22;20024;-92
2024/04/15 08:42:49;;;;;;;2.92;0.63;;;4.40;99.90;;;;;;6333881;22;20000;-94
2024/04/15 08:45:20;;;;;;;3.17;0.63;;;4.40;99.90;;;;;;6333741;22;20014;-92
2024/04/15 08:47:50;;;;;;;;;;;4.40;99.90;;;;;;6334274;22;19995;-91
2024/04/15 08:50:16;;;;;;;6.43;0.90;;;4.40;99.90;;;;;;6337164;22;20337;-91
2024/04/15 08:52:42;;;;;;;7.57;1.17;;;4.40;99.90;;;;;;6337918;22;20334;-92
2024/04/15 08:55:10;;;;;;;10.20;1.35;;;4.40;99.90;;;;;;6337411;22;20410;-91
2024/04/15 08:57:37;;;;;;;2.65;0.80;;;4.50;99.90;;;;;;6335798;22;20003;-90
2024/04/15 09:00:04;;;;;;;3.22;0.65;;;4.50;99.90;;;;;;6336163;22;20014;-91
2024/04/15 09:02:32;;;;;;;5.38;0.90;;;4.50;99.90;;;;;;6334689;22;20429;-91
2024/04/15 09:04:58;;;;;;;2.22;0.73;;;4.60;99.90;;;;;;6334992;22;20104;-90
2024/04/15 09:07:24;;;;;;;1.40;0.43;;;4.60;99.90;;;;;;6377223;22;20011;-91
2024/04/15 09:09:50;;;;;;;5.35;0.80;;;4.60;99.90;;;;;;6374503;22;20313;-89
2024/04/15 09:12:15;;;;;;;2.00;0.50;;;4.60;99.90;;;;;;6333698;22;20048;-89
2024/04/15 09:14:41;;;;;;;6.55;0.95;;;4.70;99.90;;;;;;6333232;22;20014;-89
2024/04/15 09:17:11;;;;;;;4.53;0.80;;;4.80;99.90;;;;;;6332316;22;20003;-91
2024/04/15 09:19:41;;;;;;;4.80;0.93;;;5.00;99.90;;;;;;6332445;22;19995;-89
2024/04/15 09:22:07;;;;;;;13.30;1.00;;;5.10;99.90;;;;;;6332653;22;20138;-89
2024/04/15 09:24:33;;;;;;;5.72;1.85;;;5.10;99.90;;;;;;6332919;22;20003;-89
2024/04/15 09:26:59;;;;;;;9.02;1.13;;;5.20;99.90;;;;;;6333683;22;20000;-89
2024/04/15 09:29:25;;;;;;;7.57;1.15;;;5.20;99.90;;;;;;6332912;22;20078;-88
2024/04/15 09:31:51;;;;;;;12.73;1.42;;;5.30;99.90;;;;;;6333661;22;20007;-88
2024/04/15 09:34:18;;;;;;;7.25;1.65;;;5.40;99.90;;;;;;6335128;22;20008;-89
2024/04/15 09:36:45;;;;;;;6.05;1.83;;;5.70;99.90;;;;;;6333404;22;20442;-90
2024/04/15 09:39:13;;;;;;;5.75;1.27;;;5.90;99.90;;;;;;6334675;22;20000;-89
2024/04/15 09:41:39;;;;;;;15.35;1.48;;;6.10;99.90;;;;;;6334646;22;20003;-88
2024/04/15 09:44:11;;;;;;;6.63;1.33;;;6.20;99.90;;;;;;6334375;22;19999;-89
2024/04/15 09:46:40;;;;;;;8.65;1.30;;;6.30;99.90;;;;;;6373617;22;20011;-89
2024/04/15 09:49:06;;;;;;;10.75;1.45;;;6.40;99.90;;;;;;6332059;22;20010;-89
2024/04/15 09:51:33;;;;;;;19.10;2.03;;;6.50;99.90;;;;;;6333204;22;20077;-89
2024/04/15 09:54:04;;;;;;;8.20;1.70;;;6.60;99.90;;;;;;6333132;22;20035;-91
2024/04/15 09:56:32;;;;;;;4.82;0.95;;;6.70;99.90;;;;;;6332686;22;20425;-91
2024/04/15 09:59:01;;;;;;;3.22;0.77;;;6.50;99.90;;;;;;6330942;22;19999;-88
2024/04/15 10:01:31;;;;;;;8.00;1.63;;;6.50;99.90;;;;;;6332992;22;20003;-88
2024/04/15 10:04:17;;;;;;;12.73;1.83;;;6.40;99.90;;;;;;6333305;22;20014;-90
2024/04/15 10:06:47;;;;;;;12.80;1.88;;;6.50;99.90;;;;;;6333313;22;20010;-89
2024/04/15 10:09:15;;;;;;;12.10;2.00;;;6.60;99.90;;;;;;6333236;22;20014;-90
2024/04/15 10:11:41;;;;;;;17.75;2.75;;;6.70;99.90;;;;;;6333946;22;20008;-93
2024/04/15 10:14:07;;;;;;;9.90;2.22;;;6.80;99.90;;;;;;6333495;22;20010;-88
2024/04/15 10:16:37;;;;;;;8.48;2.47;;;6.80;99.90;;;;;;6333286;22;20302;-89
2024/04/15 10:19:03;;;;;;;18.10;2.58;;;6.80;99.90;;;;;;6334685;22;20014;-88
2024/04/15 10:21:31;;;;;;;11.98;2.40;;;6.80;99.90;;;;;;6377563;22;20015;-89
2024/04/15 10:23:57;;;;;;;15.73;2.08;;;6.80;99.90;;;;;;6333343;22;19999;-89
2024/04/15 10:26:28;;;;;;;12.27;1.83;;;7.00;99.90;;;;;;6333501;22;20350;-90
2024/04/15 10:29:16;;;;;;;7.88;1.13;;;7.30;99.90;;;;;;6330561;22;19999;-89
2024/04/15 10:31:42;;;;;;;9.13;1.33;;;7.70;99.90;;;;;;6332673;22;20011;-89
2024/04/15 10:34:07;;;;;;;10.82;2.65;;;7.90;99.90;;;;;;6333410;22;20078;-89
2024/04/15 10:36:36;;;;;;;10.18;1.20;;;8.10;99.90;;;;;;6333174;22;20047;-89
2024/04/15 10:39:05;;;;;;;14.00;1.83;;;8.20;99.90;;;;;;6332699;22;19999;-89
2024/04/15 10:41:31;;;;;;;10.07;1.70;;;8.40;99.90;;;;;;6332988;22;20007;-90
2024/04/15 10:43:57;;;;;;;2.35;0.60;;;8.50;99.90;;;;;;6332713;22;19999;-89
2024/04/15 10:46:24;;;;;;;5.28;1.33;;;8.70;99.90;;;;;;6333031;22;19995;-89
2024/04/15 10:48:50;;;;;;;8.00;1.30;;;8.90;99.90;;;;;;6332278;22;19999;-89
2024/04/15 10:51:16;;;;;;;8.98;1.45;;;9.10;99.90;;;;;;6332435;22;20007;-90
2024/04/15 10:53:41;;;;;;;5.97;0.95;;;9.20;99.90;;;;;;6332437;22;20009;-90
2024/04/15 10:56:09;;;;;;;11.05;1.30;;;9.20;99.90;;;;;;6333204;22;19999;-92
2024/04/15 10:58:36;;;;;;;7.53;1.65;;;9.00;99.90;;;;;;6332814;22;20313;-88
2024/04/15 11:01:02;;;;;;;4.88;1.40;;;8.70;99.90;;;;;;6332291;22;20003;-88
2024/04/15 11:03:28;;;;;;;6.65;1.20;;;8.60;99.90;;;;;;6332394;22;20003;-89
2024/04/15 11:05:56;;;;;;;6.55;1.23;;;8.70;99.90;;;;;;6332603;22;20000;-90
2024/04/15 11:08:21;;;;;;;14.90;1.88;;;8.90;99.90;;;;;;6332133;22;20003;-89
2024/04/15 11:10:47;;;;;;;4.10;1.08;;;9.10;99.90;;;;;;6332288;22;20307;-89
2024/04/15 11:13:15;;;;;;;8.93;1.27;;;9.30;99.90;;;;;;6374705;22;20003;-89
2024/04/15 11:15:42;;;;;;;6.88;1.17;;;9.30;99.90;;;;;;6332592;22;20013;-89
2024/04/15 11:18:14;;;;;;;10.43;1.30;;;9.40;99.90;;;;;;6332717;22;20004;-89
2024/04/15 11:20:41;;;;;;;5.30;1.35;;;9.50;99.90;;;;;;6332494;22;19999;-88
2024/04/15 11:23:07;;;;;;;13.88;1.80;;;9.50;99.90;;;;;;6332333;22;19999;-89
2024/04/15 11:25:33;;;;;;;7.25;1.00;;;9.60;99.90;;;;;;6333037;22;20000;-89
2024/04/15 11:28:00;;;;;;;7.30;1.45;;;9.70;99.90;;;;;;6336606;22;20437;-88
2024/04/15 11:30:27;;;;;;;8.68;1.25;;;9.60;99.90;;;;;;6335635;22;20011;-89
2024/04/15 11:32:54;;;;;;;8.02;1.45;;;9.40;99.90;;;;;;6333991;22;20003;-88
2024/04/15 11:35:20;;;;;;;13.20;2.13;;;9.20;99.90;;;;;;6333934;22;20011;-89
2024/04/15 11:38:01;;;;;;;5.88;1.02;;;9.00;99.90;;;;;;6336308;22;20028;-90
2024/04/15 11:40:28;;;;;;;7.07;1.40;;;8.70;99.90;;;;;;6334489;22;20010;-88
2024/04/15 11:42:56;;;;;;;11.27;1.75;;;8.50;99.90;;;;;;6334151;22;20125;-88
2024/04/15 11:45:22;;;;;;;9.82;1.65;;;8.40;99.90;;;;;;6334021;22;19999;-88
2024/04/15 11:47:52;;;;;;;13.05;1.60;;;8.60;99.90;;;;;;6334071;22;19999;-89
2024/04/15 11:50:18;;;;;;;11.48;2.10;;;8.80;99.90;;;;;;6375027;22;19999;-88
2024/04/15 11:52:44;;;;;;;11.23;1.95;;;9.00;99.90;;;;;;6334076;22;20003;-89
2024/04/15 11:55:21;;;;;;;6.70;1.02;;;9.40;99.90;;;;;;6334076;22;20003;-88
2024/04/15 11:57:48;;;;;;;11.13;1.38;;;9.60;99.90;;;;;;6374488;22;19995;-89
2024/04/15 12:00:15;;;;;;;9.13;1.85;;;9.70;99.90;;;;;;6333411;22;19999;-89
2024/04/15 12:02:47;;;;;;;9.98;2.13;;;9.80;99.90;;;;;;6333732;22;20003;-89
2024/04/15 12:05:13;;;;;;;11.57;1.40;;;9.80;99.90;;;;;;6334171;22;20027;-91
2024/04/15 12:07:40;;;;;;;9.50;2.03;;;10.00;99.90;;;;;;6333388;22;20011;-89
2024/04/15 12:10:07;;;;;;;9.27;1.50;;;10.00;99.90;;;;;;6333765;22;20035;-89
2024/04/15 12:12:32;;;;;;;11.57;1.55;;;9.90;99.90;;;;;;6333609;22;20006;-91
2024/04/15 12:14:59;;;;;;;9.35;1.30;;;9.80;99.90;;;;;;6331983;22;20015;-88
2024/04/15 12:17:25;;;;;;;8.85;1.88;;;9.60;99.90;;;;;;6373572;22;20003;-91
2024/04/15 12:19:50;;;;;;;12.65;1.70;;;9.50;99.90;;;;;;6333479;22;20282;-88
2024/04/15 12:22:16;;;;;;;4.68;1.00;;;9.60;99.90;;;;;;6331542;22;20023;-89
2024/04/15 12:24:42;;;;;;;11.27;1.35;;;9.70;99.90;;;;;;6333330;22;20000;-89
2024/04/15 12:27:08;;;;;;;8.40;1.38;;;9.80;99.90;;;;;;6332623;22;20052;-91
2024/04/15 12:29:33;;;;;;;5.40;0.80;;;10.10;99.90;;;;;;6333659;22;20009;-89
2024/04/15 12:31:59;;;;;;;12.02;1.15;;;10.40;99.90;;;;;;6333111;22;19995;-89
2024/04/15 12:34:25;;;;;;;12.35;1.58;;;10.60;99.90;;;;;;6332946;22;19999;-89
2024/04/15 12:36:51;;;;;;;6.38;1.27;;;10.90;99.90;;;;;;6333584;22;20305;-89
2024/04/15 12:39:16;;;;;;;7.28;1.45;;;10.90;99.90;;;;;;6333601;22;20005;-89
2024/04/15 12:41:43;;;;;;;7.28;1.30;;;10.80;99.90;;;;;;6335379;22;20002;-90
2024/04/15 12:44:09;;;;;;;3.65;1.00;;;10.30;99.90;;;;;;6347776;22;20051;-92
2024/04/15 12:46:35;;;;;;;4.28;1.05;;;9.70;99.90;;;;;;6354768;22;20003;-95
2024/04/15 12:49:00;;;;;;;10.52;1.40;;;9.00;99.90;;;;;;6350119;22;19984;-93
2024/04/15 12:51:26;;;;;;;4.57;1.10;;;8.30;99.90;;;;;;6343896;22;19995;-92
2024/04/15 12:53:52;;;;;;;7.32;1.20;;;7.80;99.90;;;;;;6335500;22;20353;-91